sensor_id;sensor_type;location;lat;lon;timestamp;temperature;humidity
13320;DHT22;59599;47.608;12.190;2023-04-25T04:16:43;8.50;99.90
13320;DHT22;59599;47.608;12.190;2023-04-25T04:19:08;8.60;99.90
13320;DHT22;59599;47.608;12.190;2023-04-25T04:26:26;8.30;99.90
13320;DHT22;59599;47.608;12.190;2023-04-25T04:28:52;8.30;99.90
13320;DHT22;59599;47.608;12.190;2023-04-25T04:31:20;8.30;99.90
13320;DHT22;59599;47.608;12.190;2023-04-25T04:33:45;8.40;99.90
13320;DHT22;59599;47.608;12.190;2023-04-25T04:36:11;8.40;99.90
13320;DHT22;59599;47.608;12.190;2023-04-25T04:38:37;8.50;99.90
13320;DHT22;59599;47.608;12.190;2023-04-25T04:41:03;8.40;99.90
13320;DHT22;59599;47.608;12.190;2023-04-25T04:43:28;8.40;99.90
13320;DHT22;59599;47.608;12.190;2023-04-25T04:45:55;8.40;99.90
13320;DHT22;59599;47.608;12.190;2023-04-25T04:48:22;8.30;99.90
13320;DHT22;59599;47.608;12.190;2023-04-25T04:50:47;8.30;99.90
13320;DHT22;59599;47.608;12.190;2023-04-25T04:53:13;8.30;99.90
13320;DHT22;59599;47.608;12.190;2023-04-25T04:55:39;8.40;99.90
13320;DHT22;59599;47.608;12.190;2023-04-25T05:00:32;8.40;99.90
13320;DHT22;59599;47.608;12.190;2023-04-25T05:02:58;8.30;99.90
13320;DHT22;59599;47.608;12.190;2023-04-25T05:05:24;8.30;99.90
13320;DHT22;59599;47.608;12.190;2023-04-25T05:07:49;8.40;99.90
13320;DHT22;59599;47.608;12.190;2023-04-25T05:15:07;8.30;99.90
13320;DHT22;59599;47.608;12.190;2023-04-25T05:17:32;8.10;99.90
13320;DHT22;59599;47.608;12.190;2023-04-25T05:19:58;8.20;99.90
13320;DHT22;59599;47.608;12.190;2023-04-25T05:24:49;8.10;99.90
13320;DHT22;59599;47.608;12.190;2023-04-25T05:27:17;8.10;99.90
13320;DHT22;59599;47.608;12.190;2023-04-25T05:34:36;8.40;99.90
13320;DHT22;59599;47.608;12.190;2023-04-25T05:37:02;8.40;99.90
13320;DHT22;59599;47.608;12.190;2023-04-25T05:39:28;8.40;99.90
13320;DHT22;59599;47.608;12.190;2023-04-25T05:51:38;8.80;99.90
13320;DHT22;59599;47.608;12.190;2023-04-25T05:54:03;8.90;99.90
13320;DHT22;59599;47.608;12.190;2023-04-25T05:58:55;9.10;99.90
13320;DHT22;59599;47.608;12.190;2023-04-25T06:01:22;9.00;99.90
13320;DHT22;59599;47.608;12.190;2023-04-25T06:06:14;9.10;99.90
13320;DHT22;59599;47.608;12.190;2023-04-25T06:08:40;9.10;99.90
13320;DHT22;59599;47.608;12.190;2023-04-25T06:13:32;9.10;99.90
13320;DHT22;59599;47.608;12.190;2023-04-25T06:15:57;9.20;99.90
13320;DHT22;59599;47.608;12.190;2023-04-25T06:30:32;9.20;99.90
13320;DHT22;59599;47.608;12.190;2023-04-25T06:32:58;9.30;99.90
13320;DHT22;59599;47.608;12.190;2023-04-25T06:35:23;9.40;99.90
13320;DHT22;59599;47.608;12.190;2023-04-25T06:42:42;9.30;99.90
13320;DHT22;59599;47.608;12.190;2023-04-25T06:45:08;9.30;99.90
13320;DHT22;59599;47.608;12.190;2023-04-25T06:47:34;9.40;99.90
13320;DHT22;59599;47.608;12.190;2023-04-25T06:57:17;9.60;99.90
13320;DHT22;59599;47.608;12.190;2023-04-25T06:59:43;9.70;99.90
13320;DHT22;59599;47.608;12.190;2023-04-25T07:04:34;9.50;99.90
13320;DHT22;59599;47.608;12.190;2023-04-25T07:11:53;9.50;99.90
13320;DHT22;59599;47.608;12.190;2023-04-25T07:14:19;9.50;99.90
13320;DHT22;59599;47.608;12.190;2023-04-25T07:16:45;9.50;99.90
13320;DHT22;59599;47.608;12.190;2023-04-25T07:19:11;9.60;99.90
13320;DHT22;59599;47.608;12.190;2023-04-25T07:28:54;9.80;99.90
13320;DHT22;59599;47.608;12.190;2023-04-25T07:31:20;9.90;99.90
13320;DHT22;59599;47.608;12.190;2023-04-25T07:33:46;9.80;99.90
13320;DHT22;59599;47.608;12.190;2023-04-25T07:36:12;9.70;99.90
13320;DHT22;59599;47.608;12.190;2023-04-25T07:38:38;9.80;99.90
13320;DHT22;59599;47.608;12.190;2023-04-25T07:41:04;9.80;99.90
13320;DHT22;59599;47.608;12.190;2023-04-25T07:43:29;9.90;99.90
13320;DHT22;59599;47.608;12.190;2023-04-25T07:45:56;10.00;99.90
13320;DHT22;59599;47.608;12.190;2023-04-25T07:48:22;10.10;99.90
13320;DHT22;59599;47.608;12.190;2023-04-25T07:53:14;10.20;99.90
13320;DHT22;59599;47.608;12.190;2023-04-25T07:55:39;10.00;99.90
13320;DHT22;59599;47.608;12.190;2023-04-25T07:58:08;9.80;99.90
13320;DHT22;59599;47.608;12.190;2023-04-25T08:00:35;9.80;99.90
13320;DHT22;59599;47.608;12.190;2023-04-25T08:03:00;10.10;99.90
13320;DHT22;59599;47.608;12.190;2023-04-25T08:05:26;10.40;99.90
13320;DHT22;59599;47.608;12.190;2023-04-25T08:22:31;12.00;99.90
13320;DHT22;59599;47.608;12.190;2023-04-25T08:24:57;12.10;99.90
13320;DHT22;59599;47.608;12.190;2023-04-25T08:27:22;12.20;99.90
13320;DHT22;59599;47.608;12.190;2023-04-25T08:29:49;12.30;99.90
13320;DHT22;59599;47.608;12.190;2023-04-25T08:32:14;12.40;99.90
13320;DHT22;59599;47.608;12.190;2023-04-25T08:39:33;12.40;99.90
13320;DHT22;59599;47.608;12.190;2023-04-25T08:41:59;12.50;99.90
13320;DHT22;59599;47.608;12.190;2023-04-25T08:44:27;12.50;99.90
13320;DHT22;59599;47.608;12.190;2023-04-25T08:46:53;12.50;99.90
13320;DHT22;59599;47.608;12.190;2023-04-25T08:51:46;13.00;99.90
13320;DHT22;59599;47.608;12.190;2023-04-25T08:54:13;13.10;99.90
13320;DHT22;59599;47.608;12.190;2023-04-25T08:56:47;13.10;99.90
13320;DHT22;59599;47.608;12.190;2023-04-25T09:06:32;13.20;99.90
13320;DHT22;59599;47.608;12.190;2023-04-25T09:09:06;13.20;99.90
13320;DHT22;59599;47.608;12.190;2023-04-25T09:11:33;13.30;99.90
13320;DHT22;59599;47.608;12.190;2023-04-25T09:14:19;13.30;99.90
13320;DHT22;59599;47.608;12.190;2023-04-25T09:19:32;12.80;99.90
13320;DHT22;59599;47.608;12.190;2023-04-25T09:22:01;12.60;99.90
13320;DHT22;59599;47.608;12.190;2023-04-25T09:24:38;12.50;99.90
13320;DHT22;59599;47.608;12.190;2023-04-25T09:27:09;12.40;99.90
13320;DHT22;59599;47.608;12.190;2023-04-25T09:29:37;12.20;99.90
13320;DHT22;59599;47.608;12.190;2023-04-25T09:32:19;12.30;99.90
13320;DHT22;59599;47.608;12.190;2023-04-25T09:34:50;12.60;99.90
13320;DHT22;59599;47.608;12.190;2023-04-25T09:37:22;13.00;99.90
13320;DHT22;59599;47.608;12.190;2023-04-25T09:39:49;13.40;99.90
13320;DHT22;59599;47.608;12.190;2023-04-25T09:44:44;13.80;99.90
13320;DHT22;59599;47.608;12.190;2023-04-25T09:47:12;13.80;99.90
13320;DHT22;59599;47.608;12.190;2023-04-25T09:49:42;13.70;99.90
13320;DHT22;59599;47.608;12.190;2023-04-25T09:52:13;13.40;99.90
13320;DHT22;59599;47.608;12.190;2023-04-25T09:57:14;13.40;99.90
13320;DHT22;59599;47.608;12.190;2023-04-25T09:59:52;13.10;99.90
13320;DHT22;59599;47.608;12.190;2023-04-25T10:02:21;13.30;99.90
13320;DHT22;59599;47.608;12.190;2023-04-25T10:04:51;13.50;99.90
13320;DHT22;59599;47.608;12.190;2023-04-25T10:07:22;13.60;99.90
13320;DHT22;59599;47.608;12.190;2023-04-25T10:09:54;13.80;99.90
13320;DHT22;59599;47.608;12.190;2023-04-25T10:12:21;13.80;99.90
13320;DHT22;59599;47.608;12.190;2023-04-25T10:17:13;13.80;99.90
13320;DHT22;59599;47.608;12.190;2023-04-25T10:19:39;13.80;99.90
13320;DHT22;59599;47.608;12.190;2023-04-25T10:22:13;13.80;99.90
13320;DHT22;59599;47.608;12.190;2023-04-25T10:24:40;13.90;99.90
13320;DHT22;59599;47.608;12.190;2023-04-25T10:27:07;14.00;99.90
13320;DHT22;59599;47.608;12.190;2023-04-25T10:34:42;14.40;99.90
13320;DHT22;59599;47.608;12.190;2023-04-25T10:37:09;14.50;99.90
13320;DHT22;59599;47.608;12.190;2023-04-25T10:42:02;14.40;99.90
13320;DHT22;59599;47.608;12.190;2023-04-25T10:44:29;14.40;99.90
13320;DHT22;59599;47.608;12.190;2023-04-25T10:46:56;14.40;99.90
13320;DHT22;59599;47.608;12.190;2023-04-25T10:49:37;14.40;99.90
13320;DHT22;59599;47.608;12.190;2023-04-25T10:52:26;14.50;99.90
13320;DHT22;59599;47.608;12.190;2023-04-25T10:54:54;14.50;99.90
13320;DHT22;59599;47.608;12.190;2023-04-25T10:57:30;14.50;99.90
13320;DHT22;59599;47.608;12.190;2023-04-25T11:00:00;14.40;99.90
13320;DHT22;59599;47.608;12.190;2023-04-25T11:02:57;14.50;99.90
13320;DHT22;59599;47.608;12.190;2023-04-25T11:07:58;14.50;99.90
13320;DHT22;59599;47.608;12.190;2023-04-25T11:10:31;14.50;99.90
13320;DHT22;59599;47.608;12.190;2023-04-25T11:12:58;14.40;99.90
13320;DHT22;59599;47.608;12.190;2023-04-25T11:15:24;14.40;99.90
13320;DHT22;59599;47.608;12.190;2023-04-25T11:17:54;14.60;99.90
13320;DHT22;59599;47.608;12.190;2023-04-25T11:20:20;15.00;99.90
13320;DHT22;59599;47.608;12.190;2023-04-25T11:22:46;15.30;99.90
13320;DHT22;59599;47.608;12.190;2023-04-25T11:25:14;15.50;99.90
13320;DHT22;59599;47.608;12.190;2023-04-25T11:27:53;15.80;99.90
13320;DHT22;59599;47.608;12.190;2023-04-25T11:30:20;15.90;99.90
13320;DHT22;59599;47.608;12.190;2023-04-25T11:32:46;15.80;99.90
13320;DHT22;59599;47.608;12.190;2023-04-25T11:35:12;16.00;99.90
13320;DHT22;59599;47.608;12.190;2023-04-25T11:37:42;16.20;99.90
13320;DHT22;59599;47.608;12.190;2023-04-25T11:40:09;16.00;99.90
13320;DHT22;59599;47.608;12.190;2023-04-25T11:42:43;16.00;99.90
13320;DHT22;59599;47.608;12.190;2023-04-25T11:45:09;16.20;99.90
13320;DHT22;59599;47.608;12.190;2023-04-25T11:47:35;16.20;99.90
13320;DHT22;59599;47.608;12.190;2023-04-25T11:50:05;16.00;99.90
13320;DHT22;59599;47.608;12.190;2023-04-25T11:52:41;15.70;99.90
13320;DHT22;59599;47.608;12.190;2023-04-25T11:55:14;15.40;99.90
13320;DHT22;59599;47.608;12.190;2023-04-25T11:57:40;15.10;99.90
13320;DHT22;59599;47.608;12.190;2023-04-25T12:00:19;14.80;99.90
13320;DHT22;59599;47.608;12.190;2023-04-25T12:02:53;14.70;99.90
13320;DHT22;59599;47.608;12.190;2023-04-25T12:05:19;14.60;99.90
13320;DHT22;59599;47.608;12.190;2023-04-25T12:07:46;14.50;99.90
13320;DHT22;59599;47.608;12.190;2023-04-25T12:10:14;14.60;99.90
13320;DHT22;59599;47.608;12.190;2023-04-25T12:12:45;14.80;99.90
13320;DHT22;59599;47.608;12.190;2023-04-25T12:15:15;15.10;99.90
13320;DHT22;59599;47.608;12.190;2023-04-25T12:17:45;15.40;99.90
13320;DHT22;59599;47.608;12.190;2023-04-25T12:20:16;15.60;99.90
13320;DHT22;59599;47.608;12.190;2023-04-25T12:22:46;15.70;99.90
13320;DHT22;59599;47.608;12.190;2023-04-25T12:25:13;15.80;99.90
13320;DHT22;59599;47.608;12.190;2023-04-25T12:27:40;15.70;99.90
13320;DHT22;59599;47.608;12.190;2023-04-25T12:30:08;15.60;99.90
13320;DHT22;59599;47.608;12.190;2023-04-25T12:32:34;15.20;99.90
13320;DHT22;59599;47.608;12.190;2023-04-25T12:34:59;14.60;99.90
13320;DHT22;59599;47.608;12.190;2023-04-25T12:37:25;14.20;99.90
13320;DHT22;59599;47.608;12.190;2023-04-25T12:44:42;13.20;99.90
13320;DHT22;59599;47.608;12.190;2023-04-25T12:47:08;13.10;99.90
13320;DHT22;59599;47.608;12.190;2023-04-25T12:52:00;12.80;99.90
13320;DHT22;59599;47.608;12.190;2023-04-25T12:54:25;12.80;99.90
13320;DHT22;59599;47.608;12.190;2023-04-25T12:59:17;13.50;99.90
13320;DHT22;59599;47.608;12.190;2023-04-25T13:01:43;13.80;99.90
13320;DHT22;59599;47.608;12.190;2023-04-25T13:04:10;14.00;99.90
13320;DHT22;59599;47.608;12.190;2023-04-25T13:06:36;14.30;99.90
13320;DHT22;59599;47.608;12.190;2023-04-25T13:11:28;14.80;99.90
13320;DHT22;59599;47.608;12.190;2023-04-25T13:13:54;15.00;99.90
13320;DHT22;59599;47.608;12.190;2023-04-25T13:16:20;15.30;99.90
13320;DHT22;59599;47.608;12.190;2023-04-25T13:18:48;15.40;99.90
13320;DHT22;59599;47.608;12.190;2023-04-25T13:21:14;15.50;99.90
13320;DHT22;59599;47.608;12.190;2023-04-25T13:23:40;15.40;99.90
13320;DHT22;59599;47.608;12.190;2023-04-25T13:28:33;14.60;99.90
13320;DHT22;59599;47.608;12.190;2023-04-25T13:30:59;14.10;99.90
13320;DHT22;59599;47.608;12.190;2023-04-25T13:33:24;13.80;99.90
13320;DHT22;59599;47.608;12.190;2023-04-25T13:35:51;13.60;99.90
13320;DHT22;59599;47.608;12.190;2023-04-25T13:38:22;13.50;99.90
13320;DHT22;59599;47.608;12.190;2023-04-25T13:40:48;13.50;99.90
13320;DHT22;59599;47.608;12.190;2023-04-25T13:43:14;13.60;99.90
13320;DHT22;59599;47.608;12.190;2023-04-25T13:45:39;13.80;99.90
13320;DHT22;59599;47.608;12.190;2023-04-25T13:48:05;13.90;99.90
13320;DHT22;59599;47.608;12.190;2023-04-25T13:52:57;14.10;99.90
13320;DHT22;59599;47.608;12.190;2023-04-25T13:57:48;13.80;99.90
13320;DHT22;59599;47.608;12.190;2023-04-25T14:00:14;13.60;99.90
13320;DHT22;59599;47.608;12.190;2023-04-25T14:02:40;13.20;99.90
13320;DHT22;59599;47.608;12.190;2023-04-25T14:05:06;12.90;99.90
13320;DHT22;59599;47.608;12.190;2023-04-25T14:07:33;12.80;99.90
13320;DHT22;59599;47.608;12.190;2023-04-25T14:10:00;12.50;99.90
13320;DHT22;59599;47.608;12.190;2023-04-25T14:12:26;12.30;99.90
13320;DHT22;59599;47.608;12.190;2023-04-25T14:17:18;11.30;99.90
13320;DHT22;59599;47.608;12.190;2023-04-25T14:19:44;10.90;99.90
13320;DHT22;59599;47.608;12.190;2023-04-25T14:27:04;10.70;99.90
13320;DHT22;59599;47.608;12.190;2023-04-25T14:31:56;10.70;99.90
13320;DHT22;59599;47.608;12.190;2023-04-25T14:36:50;10.60;99.90
13320;DHT22;59599;47.608;12.190;2023-04-25T14:44:07;10.60;99.90
13320;DHT22;59599;47.608;12.190;2023-04-25T14:46:33;10.60;99.90
13320;DHT22;59599;47.608;12.190;2023-04-25T14:48:59;10.40;99.90
13320;DHT22;59599;47.608;12.190;2023-04-25T14:51:25;10.40;99.90
13320;DHT22;59599;47.608;12.190;2023-04-25T14:53:51;10.50;99.90
13320;DHT22;59599;47.608;12.190;2023-04-25T14:56:17;10.60;99.90
13320;DHT22;59599;47.608;12.190;2023-04-25T14:58:43;10.70;99.90
13320;DHT22;59599;47.608;12.190;2023-04-25T15:08:28;10.60;99.90
13320;DHT22;59599;47.608;12.190;2023-04-25T15:10:54;10.60;99.90
13320;DHT22;59599;47.608;12.190;2023-04-25T15:13:19;10.80;99.90
13320;DHT22;59599;47.608;12.190;2023-04-25T15:15:45;10.90;99.90
13320;DHT22;59599;47.608;12.190;2023-04-25T15:18:17;11.00;99.90
13320;DHT22;59599;47.608;12.190;2023-04-25T15:20:42;11.10;99.90
13320;DHT22;59599;47.608;12.190;2023-04-25T15:23:08;11.00;99.90
13320;DHT22;59599;47.608;12.190;2023-04-25T15:25:33;11.00;99.90
13320;DHT22;59599;47.608;12.190;2023-04-25T15:37:43;10.80;99.90
13320;DHT22;59599;47.608;12.190;2023-04-25T15:40:11;10.70;99.90
13320;DHT22;59599;47.608;12.190;2023-04-25T15:42:48;10.70;99.90
13320;DHT22;59599;47.608;12.190;2023-04-25T15:45:18;10.60;99.90
13320;DHT22;59599;47.608;12.190;2023-04-25T15:47:44;10.60;99.90
13320;DHT22;59599;47.608;12.190;2023-04-25T15:50:11;10.60;99.90
13320;DHT22;59599;47.608;12.190;2023-04-25T15:52:37;10.50;99.90
13320;DHT22;59599;47.608;12.190;2023-04-25T15:55:04;10.50;99.90
13320;DHT22;59599;47.608;12.190;2023-04-25T15:57:32;10.50;99.90
13320;DHT22;59599;47.608;12.190;2023-04-25T16:04:50;10.40;99.90
13320;DHT22;59599;47.608;12.190;2023-04-25T16:07:15;10.50;99.90
13320;DHT22;59599;47.608;12.190;2023-04-25T16:09:41;10.50;99.90
13320;DHT22;59599;47.608;12.190;2023-04-25T16:12:08;10.50;99.90
13320;DHT22;59599;47.608;12.190;2023-04-25T16:14:35;10.60;99.90
13320;DHT22;59599;47.608;12.190;2023-04-25T16:21:53;10.80;99.90
13320;DHT22;59599;47.608;12.190;2023-04-25T16:24:18;10.70;99.90
13320;DHT22;59599;47.608;12.190;2023-04-25T16:26:44;10.70;99.90
13320;DHT22;59599;47.608;12.190;2023-04-25T16:29:10;10.60;99.90
13320;DHT22;59599;47.608;12.190;2023-04-25T16:34:03;10.50;99.90
13320;DHT22;59599;47.608;12.190;2023-04-25T16:51:10;10.30;99.90
13320;DHT22;59599;47.608;12.190;2023-04-25T17:00:53;9.80;99.90
13320;DHT22;59599;47.608;12.190;2023-04-25T17:05:49;9.70;99.90
13320;DHT22;59599;47.608;12.190;2023-04-25T17:08:14;9.60;99.90
13320;DHT22;59599;47.608;12.190;2023-04-25T17:13:06;9.60;99.90
13320;DHT22;59599;47.608;12.190;2023-04-25T17:15:32;9.60;99.90
13320;DHT22;59599;47.608;12.190;2023-04-25T17:17:57;9.50;99.90
13320;DHT22;59599;47.608;12.190;2023-04-25T17:30:08;9.30;99.90
13320;DHT22;59599;47.608;12.190;2023-04-25T17:32:34;9.20;99.90
13320;DHT22;59599;47.608;12.190;2023-04-25T17:34:59;9.20;99.90
13320;DHT22;59599;47.608;12.190;2023-04-25T17:37:25;9.10;99.90
13320;DHT22;59599;47.608;12.190;2023-04-25T17:44:44;9.10;99.90
13320;DHT22;59599;47.608;12.190;2023-04-25T17:47:10;9.10;99.90
13320;DHT22;59599;47.608;12.190;2023-04-25T17:49:36;9.00;99.90
13320;DHT22;59599;47.608;12.190;2023-04-25T17:52:02;8.90;99.90
13320;DHT22;59599;47.608;12.190;2023-04-25T17:54:28;8.90;99.90
13320;DHT22;59599;47.608;12.190;2023-04-25T17:56:54;8.80;99.90
13320;DHT22;59599;47.608;12.190;2023-04-25T17:59:20;8.60;99.90
13320;DHT22;59599;47.608;12.190;2023-04-25T18:01:46;8.60;99.90
13320;DHT22;59599;47.608;12.190;2023-04-25T18:04:12;8.60;99.90
13320;DHT22;59599;47.608;12.190;2023-04-25T18:06:38;8.70;99.90
13320;DHT22;59599;47.608;12.190;2023-04-25T18:11:43;8.70;99.90
13320;DHT22;59599;47.608;12.190;2023-04-25T18:14:10;8.70;99.90
13320;DHT22;59599;47.608;12.190;2023-04-25T18:16:45;8.70;99.90
13320;DHT22;59599;47.608;12.190;2023-04-25T18:19:11;8.80;99.90
13320;DHT22;59599;47.608;12.190;2023-04-25T18:21:40;8.80;99.90
13320;DHT22;59599;47.608;12.190;2023-04-25T18:24:07;8.70;99.90
13320;DHT22;59599;47.608;12.190;2023-04-25T18:33:54;8.60;99.90
13320;DHT22;59599;47.608;12.190;2023-04-25T18:36:20;8.50;99.90
13320;DHT22;59599;47.608;12.190;2023-04-25T18:38:45;8.40;99.90
13320;DHT22;59599;47.608;12.190;2023-04-25T18:48:34;8.30;99.90
13320;DHT22;59599;47.608;12.190;2023-04-25T18:51:00;8.20;99.90
13320;DHT22;59599;47.608;12.190;2023-04-25T18:53:26;8.30;99.90
13320;DHT22;59599;47.608;12.190;2023-04-25T18:55:52;8.40;99.90
13320;DHT22;59599;47.608;12.190;2023-04-25T18:58:17;8.40;99.90
13320;DHT22;59599;47.608;12.190;2023-04-25T19:08:00;8.20;99.90
13320;DHT22;59599;47.608;12.190;2023-04-25T19:10:26;8.40;99.90
13320;DHT22;59599;47.608;12.190;2023-04-25T19:12:53;8.10;99.90
13320;DHT22;59599;47.608;12.190;2023-04-25T19:17:45;8.00;99.90
13320;DHT22;59599;47.608;12.190;2023-04-25T19:20:11;8.00;99.90
13320;DHT22;59599;47.608;12.190;2023-04-25T19:25:03;8.00;99.90
13320;DHT22;59599;47.608;12.190;2023-04-25T19:27:30;7.90;99.90
13320;DHT22;59599;47.608;12.190;2023-04-25T19:32:33;7.90;99.90
13320;DHT22;59599;47.608;12.190;2023-04-25T19:37:25;7.80;99.90
13320;DHT22;59599;47.608;12.190;2023-04-25T19:39:50;7.90;99.90
13320;DHT22;59599;47.608;12.190;2023-04-25T19:44:44;7.90;99.90
13320;DHT22;59599;47.608;12.190;2023-04-25T19:47:09;7.80;99.90
13320;DHT22;59599;47.608;12.190;2023-04-25T19:49:36;7.80;99.90
13320;DHT22;59599;47.608;12.190;2023-04-25T19:52:02;7.60;99.90
13320;DHT22;59599;47.608;12.190;2023-04-25T19:56:54;7.90;99.90
13320;DHT22;59599;47.608;12.190;2023-04-25T19:59:19;7.90;99.90
13320;DHT22;59599;47.608;12.190;2023-04-25T20:01:45;7.70;99.90
13320;DHT22;59599;47.608;12.190;2023-04-25T20:28:37;7.30;99.90
13320;DHT22;59599;47.608;12.190;2023-04-25T20:31:03;7.30;99.90
13320;DHT22;59599;47.608;12.190;2023-04-25T20:33:28;7.30;99.90
13320;DHT22;59599;47.608;12.190;2023-04-25T20:35:54;7.30;99.90
13320;DHT22;59599;47.608;12.190;2023-04-25T20:38:20;7.40;99.90
13320;DHT22;59599;47.608;12.190;2023-04-25T20:45:38;7.60;99.90
13320;DHT22;59599;47.608;12.190;2023-04-25T20:50:31;7.80;99.90
13320;DHT22;59599;47.608;12.190;2023-04-25T20:52:57;7.90;99.90
13320;DHT22;59599;47.608;12.190;2023-04-25T20:55:22;7.80;99.90
13320;DHT22;59599;47.608;12.190;2023-04-25T20:57:48;7.70;99.90
13320;DHT22;59599;47.608;12.190;2023-04-25T21:02:51;7.40;99.90
13320;DHT22;59599;47.608;12.190;2023-04-25T21:05:17;7.40;99.90
13320;DHT22;59599;47.608;12.190;2023-04-25T21:07:43;7.40;99.90
13320;DHT22;59599;47.608;12.190;2023-04-25T21:12:37;7.50;99.90
13320;DHT22;59599;47.608;12.190;2023-04-25T21:29:42;7.50;99.90
13320;DHT22;59599;47.608;12.190;2023-04-25T21:32:08;7.60;99.90
13320;DHT22;59599;47.608;12.190;2023-04-25T21:34:33;7.60;99.90
13320;DHT22;59599;47.608;12.190;2023-04-25T21:44:17;7.40;99.90
13320;DHT22;59599;47.608;12.190;2023-04-25T21:46:42;7.20;99.90
13320;DHT22;59599;47.608;12.190;2023-04-25T21:49:08;7.20;99.90
13320;DHT22;59599;47.608;12.190;2023-04-25T21:51:34;7.30;99.90
13320;DHT22;59599;47.608;12.190;2023-04-25T21:54:00;7.40;99.90
13320;DHT22;59599;47.608;12.190;2023-04-25T21:58:55;7.50;99.90
